createdAt,value
2023-01-31T00:02:12.232Z,4.65
2023-01-31T00:05:16.542Z,4.82
2023-01-31T00:08:19.212Z,4.63
2023-01-31T00:11:24.650Z,4.55
2023-01-31T00:14:27.230Z,4.61
2023-01-31T00:17:29.795Z,4.46
2023-01-31T00:20:33.717Z,4.48
2023-01-31T00:23:37.165Z,4.54
2023-01-31T00:26:40.058Z,4.53
2023-01-31T00:29:42.695Z,4.29
2023-01-31T00:32:45.266Z,4.34
2023-01-31T00:35:49.236Z,4.38
2023-01-31T00:38:53.381Z,4.43
2023-01-31T00:41:55.958Z,4.54
2023-01-31T00:44:58.600Z,4.54
2023-01-31T00:48:01.174Z,4.47
2023-01-31T00:51:05.903Z,4.71
2023-01-31T00:54:08.508Z,4.66
2023-01-31T00:57:11.135Z,4.64
2023-01-31T01:00:14.844Z,4.38
2023-01-31T01:03:17.446Z,4.51
2023-01-31T01:06:22.103Z,4.23
2023-01-31T01:09:25.427Z,4.01
2023-01-31T01:12:28.015Z,4.06
2023-01-31T01:15:30.583Z,4.16
2023-01-31T01:18:35.376Z,4.02
2023-01-31T01:21:40.681Z,3.91
2023-01-31T01:24:43.830Z,3.98
2023-01-31T01:27:46.401Z,4.05
2023-01-31T01:30:48.999Z,4.09
2023-01-31T01:33:51.721Z,3.85
2023-01-31T01:36:55.693Z,4.00
2023-01-31T01:39:58.250Z,4.09
2023-01-31T01:43:00.827Z,4.13
2023-01-31T01:46:03.557Z,4.15
2023-01-31T01:49:18.983Z,4.07
2023-01-31T01:52:24.921Z,4.27
2023-01-31T01:55:32.880Z,4.10
2023-01-31T01:58:40.853Z,4.20
2023-01-31T02:01:45.010Z,4.20
2023-01-31T02:04:51.453Z,4.38
2023-01-31T02:07:56.034Z,4.27
2023-01-31T02:11:04.126Z,4.56
2023-01-31T02:14:09.362Z,4.34
2023-01-31T02:17:15.808Z,4.43
2023-01-31T02:20:34.325Z,4.42
2023-01-31T02:24:09.720Z,4.24
2023-01-31T02:27:45.228Z,4.11
2023-01-31T02:31:19.571Z,4.39
2023-01-31T02:34:31.743Z,4.25
2023-01-31T02:37:42.086Z,4.43
2023-01-31T02:40:52.549Z,4.21
2023-01-31T02:44:16.111Z,4.42
2023-01-31T02:47:28.417Z,4.52
2023-01-31T02:50:39.740Z,4.14
2023-01-31T02:53:46.514Z,4.06
2023-01-31T02:56:50.274Z,4.15
2023-01-31T02:59:52.975Z,4.22
2023-01-31T03:02:56.362Z,4.17
2023-01-31T03:06:27.564Z,4.34
2023-01-31T03:09:43.117Z,4.27
2023-01-31T03:12:59.175Z,4.15
2023-01-31T03:16:30.446Z,4.17
2023-01-31T03:19:39.822Z,4.15
2023-01-31T03:22:46.538Z,4.08
2023-01-31T03:25:50.612Z,4.13
2023-01-31T03:28:57.088Z,4.09
2023-01-31T03:32:06.040Z,4.17
2023-01-31T03:35:09.848Z,4.13
2023-01-31T03:38:18.743Z,4.16
2023-01-31T03:41:28.847Z,4.10
2023-01-31T03:44:40.333Z,4.21
2023-01-31T03:47:45.650Z,3.96
2023-01-31T03:50:52.384Z,4.26
2023-01-31T03:54:01.400Z,4.23
2023-01-31T03:57:08.532Z,4.27
2023-01-31T04:00:16.485Z,4.22
2023-01-31T04:03:25.067Z,4.26
2023-01-31T04:06:28.399Z,4.38
2023-01-31T04:09:32.357Z,4.24
2023-01-31T04:12:37.249Z,4.26
2023-01-31T04:15:39.952Z,4.34
2023-01-31T04:18:42.559Z,4.51
2023-01-31T04:21:45.184Z,4.43
2023-01-31T04:24:49.506Z,4.55
2023-01-31T04:27:52.115Z,4.29
2023-01-31T04:30:55.507Z,4.53
2023-01-31T04:33:58.349Z,4.71
2023-01-31T04:37:00.936Z,4.64
2023-01-31T04:40:05.851Z,4.61
2023-01-31T04:43:08.445Z,4.65
2023-01-31T04:46:11.052Z,4.54
2023-01-31T04:49:13.709Z,4.43
2023-01-31T04:52:16.338Z,4.59
2023-01-31T04:55:20.949Z,4.34
2023-01-31T04:58:24.145Z,4.47
2023-01-31T05:01:27.289Z,4.32
2023-01-31T05:04:29.888Z,4.59
2023-01-31T05:07:32.746Z,4.63
2023-01-31T05:10:37.146Z,4.58
2023-01-31T05:13:39.738Z,4.38
2023-01-31T05:16:44.010Z,4.47
2023-01-31T05:19:48.546Z,4.32
2023-01-31T05:22:51.663Z,4.66
2023-01-31T05:25:55.726Z,4.90
2023-01-31T05:29:00.439Z,4.77
2023-01-31T05:32:04.506Z,4.66
2023-01-31T05:35:08.142Z,4.76
2023-01-31T05:38:10.995Z,4.83
2023-01-31T05:41:14.925Z,4.85
2023-01-31T05:44:17.774Z,4.62
2023-01-31T05:47:20.376Z,4.73
2023-01-31T05:50:23.476Z,4.86
2023-01-31T05:53:26.144Z,4.84
2023-01-31T05:56:30.074Z,4.81
2023-01-31T05:59:33.561Z,4.63
2023-01-31T06:02:36.179Z,4.38
2023-01-31T06:05:44.733Z,4.61
2023-01-31T06:08:47.374Z,4.52
2023-01-31T06:11:51.278Z,4.68
2023-01-31T06:15:15.716Z,4.57
2023-01-31T06:18:18.287Z,4.80
2023-01-31T06:21:21.125Z,4.74
2023-01-31T06:24:23.755Z,4.70
2023-01-31T06:27:27.674Z,4.66
2023-01-31T06:30:30.876Z,4.82
2023-01-31T06:33:45.391Z,4.85
2023-01-31T06:36:49.771Z,4.90
2023-01-31T06:39:52.328Z,4.76
2023-01-31T06:42:56.515Z,4.81
2023-01-31T06:45:59.185Z,4.70
2023-01-31T06:49:02.009Z,4.58
2023-01-31T06:52:04.757Z,4.65
2023-01-31T06:55:08.062Z,4.87
2023-01-31T06:58:11.985Z,4.97
2023-01-31T07:01:16.246Z,4.87
2023-01-31T07:04:19.021Z,4.71
2023-01-31T07:07:21.620Z,4.78
2023-01-31T07:10:24.201Z,4.68
2023-01-31T07:13:28.934Z,4.70
2023-01-31T07:16:32.361Z,4.67
2023-01-31T07:19:34.973Z,4.88
2023-01-31T07:22:37.586Z,4.85
2023-01-31T07:25:40.159Z,4.83
2023-01-31T07:28:44.136Z,4.80
2023-01-31T07:31:46.784Z,4.89
2023-01-31T07:34:49.897Z,5.15
2023-01-31T07:37:53.115Z,4.93
2023-01-31T07:40:55.808Z,4.91
2023-01-31T07:44:00.611Z,5.05
2023-01-31T07:47:03.186Z,4.87
2023-01-31T07:50:06.333Z,4.84
2023-01-31T07:53:08.950Z,4.82
2023-01-31T07:56:14.261Z,4.75
2023-01-31T07:59:18.524Z,4.83
2023-01-31T08:02:38.774Z,4.63
2023-01-31T08:05:41.409Z,4.75
2023-01-31T08:08:45.069Z,4.82
2023-01-31T08:11:47.767Z,4.65
2023-01-31T08:14:51.708Z,4.65
2023-01-31T08:17:54.296Z,4.82
2023-01-31T08:20:57.789Z,4.75
2023-01-31T08:24:00.407Z,4.81
2023-01-31T08:27:03.013Z,4.90
2023-01-31T08:30:08.801Z,4.95
2023-01-31T08:33:12.586Z,4.97
2023-01-31T08:36:18.851Z,4.98
2023-01-31T08:39:21.423Z,4.94
2023-01-31T08:42:23.987Z,5.01
2023-01-31T08:45:28.257Z,4.93
2023-01-31T08:48:33.289Z,5.03
2023-01-31T08:51:35.934Z,4.82
2023-01-31T08:54:38.493Z,4.94
2023-01-31T08:57:57.660Z,5.01
2023-01-31T09:01:04.184Z,5.16
2023-01-31T09:04:06.759Z,5.13
2023-01-31T09:07:09.379Z,5.09
2023-01-31T09:10:12.523Z,5.27
2023-01-31T09:13:15.114Z,5.14
2023-01-31T09:16:20.943Z,5.34
2023-01-31T09:19:23.658Z,5.33
2023-01-31T09:22:26.283Z,5.33
2023-01-31T09:25:43.441Z,5.09
2023-01-31T09:28:49.186Z,5.18
2023-01-31T09:31:53.618Z,5.23
2023-01-31T09:34:56.224Z,5.19
2023-01-31T09:37:59.369Z,5.19
2023-01-31T09:41:04.240Z,5.09
2023-01-31T09:44:11.529Z,4.98
2023-01-31T09:47:22.284Z,5.03
2023-01-31T09:50:32.240Z,5.06
2023-01-31T09:53:39.313Z,5.14
2023-01-31T09:56:46.631Z,5.02
2023-01-31T09:59:54.657Z,4.98
2023-01-31T10:03:31.853Z,4.95
2023-01-31T10:06:40.962Z,4.92
2023-01-31T10:09:47.481Z,5.06
2023-01-31T10:12:53.272Z,5.14
2023-01-31T10:15:58.663Z,5.23
2023-01-31T10:19:07.447Z,5.19
2023-01-31T10:22:15.279Z,5.23
2023-01-31T10:25:24.961Z,5.24
2023-01-31T10:28:36.713Z,5.18
2023-01-31T10:31:44.290Z,5.12
2023-01-31T10:34:54.570Z,5.08
2023-01-31T10:38:02.786Z,5.23
2023-01-31T10:41:14.693Z,5.39
2023-01-31T10:44:23.873Z,5.39
2023-01-31T10:47:32.798Z,5.19
2023-01-31T10:50:46.372Z,5.36
2023-01-31T10:54:05.589Z,5.36
2023-01-31T10:57:08.363Z,5.44
2023-01-31T11:00:18.995Z,5.52
2023-01-31T11:03:22.072Z,5.48
2023-01-31T11:06:26.063Z,5.59
2023-01-31T11:09:31.344Z,5.63
2023-01-31T11:12:53.327Z,5.44
2023-01-31T11:15:56.598Z,5.51
2023-01-31T11:19:02.321Z,5.54
2023-01-31T11:22:08.144Z,5.73
2023-01-31T11:25:21.785Z,5.54
2023-01-31T11:28:29.163Z,5.60
2023-01-31T11:31:35.602Z,5.69
2023-01-31T11:34:38.274Z,5.80
2023-01-31T11:37:53.958Z,5.71
2023-01-31T11:40:56.734Z,5.81
2023-01-31T11:44:09.276Z,5.73
2023-01-31T11:47:14.009Z,5.84
2023-01-31T11:50:21.804Z,5.74
2023-01-31T11:53:29.692Z,5.81
2023-01-31T11:56:37.925Z,5.84
2023-01-31T11:59:40.643Z,5.84
2023-01-31T12:02:43.354Z,5.82
2023-01-31T12:05:51.253Z,5.93
2023-01-31T12:08:57.093Z,5.93
2023-01-31T12:12:02.693Z,5.94
2023-01-31T12:15:15.365Z,5.92
2023-01-31T12:18:28.556Z,6.01
2023-01-31T12:21:45.749Z,6.03
2023-01-31T12:25:03.476Z,5.91
2023-01-31T12:28:22.858Z,6.01
2023-01-31T12:31:42.081Z,6.01
2023-01-31T12:35:11.032Z,6.09
2023-01-31T12:38:28.689Z,5.98
2023-01-31T12:41:40.342Z,6.08
2023-01-31T12:44:46.625Z,6.05
2023-01-31T12:48:09.366Z,6.09
2023-01-31T12:51:27.051Z,6.12
2023-01-31T12:54:45.004Z,6.17
2023-01-31T12:57:58.115Z,6.25
2023-01-31T13:01:05.682Z,6.22
2023-01-31T13:04:27.716Z,6.25
2023-01-31T13:07:36.690Z,6.31
2023-01-31T13:10:44.665Z,6.31
2023-01-31T13:13:51.704Z,6.37
2023-01-31T13:17:00.067Z,6.34
2023-01-31T13:20:09.062Z,6.46
2023-01-31T13:23:18.125Z,6.40
2023-01-31T13:26:26.503Z,6.47
2023-01-31T13:29:35.329Z,6.49
2023-01-31T13:32:42.235Z,6.42
2023-01-31T13:35:46.176Z,6.47
2023-01-31T13:38:49.323Z,6.49
2023-01-31T13:41:52.204Z,6.60
2023-01-31T13:44:57.496Z,6.63
2023-01-31T13:48:04.743Z,6.63
2023-01-31T13:51:16.031Z,6.76
2023-01-31T13:54:23.463Z,6.72
2023-01-31T13:57:29.592Z,6.76
2023-01-31T14:00:40.902Z,6.77
2023-01-31T14:04:24.473Z,6.76
2023-01-31T14:07:27.064Z,6.87
2023-01-31T14:10:38.623Z,6.93
2023-01-31T14:13:44.032Z,6.89
2023-01-31T14:16:51.742Z,6.91
2023-01-31T14:20:07.870Z,6.93
2023-01-31T14:23:31.040Z,7.03
2023-01-31T14:26:38.229Z,6.98
2023-01-31T14:29:44.002Z,7.03
2023-01-31T14:32:50.547Z,7.08
2023-01-31T14:36:08.160Z,7.01
2023-01-31T14:39:25.756Z,6.92
2023-01-31T14:42:45.143Z,7.07
2023-01-31T14:46:07.345Z,7.04
2023-01-31T14:49:26.571Z,7.00
2023-01-31T14:52:48.809Z,6.99
2023-01-31T14:56:24.180Z,7.15
2023-01-31T14:59:34.951Z,6.99
2023-01-31T15:02:49.692Z,6.93
2023-01-31T15:05:56.696Z,6.99
2023-01-31T15:09:27.807Z,6.93
2023-01-31T15:12:55.753Z,6.92
2023-01-31T15:15:59.037Z,6.93
2023-01-31T15:19:09.044Z,6.82
2023-01-31T15:22:14.408Z,6.90
2023-01-31T15:25:25.993Z,6.87
2023-01-31T15:28:31.093Z,6.89
2023-01-31T15:31:42.023Z,6.97
2023-01-31T15:34:55.362Z,6.74
2023-01-31T15:38:04.815Z,6.81
2023-01-31T15:41:20.069Z,6.87
2023-01-31T15:44:24.215Z,6.86
2023-01-31T15:47:26.787Z,6.88
2023-01-31T15:50:31.438Z,6.91
2023-01-31T15:53:35.393Z,6.94
2023-01-31T15:56:41.481Z,6.90
2023-01-31T15:59:47.151Z,6.91
2023-01-31T16:02:50.040Z,7.00
2023-01-31T16:05:54.395Z,6.99
2023-01-31T16:09:01.763Z,6.99
2023-01-31T16:12:05.156Z,6.99
2023-01-31T16:15:09.598Z,7.02
2023-01-31T16:18:13.832Z,6.98
2023-01-31T16:21:25.616Z,7.07
2023-01-31T16:24:29.640Z,7.10
2023-01-31T16:27:36.969Z,7.10
2023-01-31T16:30:41.384Z,6.26
2023-01-31T16:33:50.396Z,5.55
2023-01-31T16:36:57.504Z,5.32
2023-01-31T16:40:05.947Z,5.34
2023-01-31T16:43:19.768Z,5.40
2023-01-31T16:46:38.643Z,5.41
2023-01-31T16:49:41.383Z,5.39
2023-01-31T16:52:45.035Z,5.38
2023-01-31T16:56:23.098Z,5.25
2023-01-31T16:59:48.399Z,5.21
2023-01-31T17:02:53.321Z,5.19
2023-01-31T17:05:55.984Z,5.16
2023-01-31T17:08:59.166Z,5.31
2023-01-31T17:12:03.565Z,5.35
2023-01-31T17:15:14.876Z,5.43
2023-01-31T17:18:17.983Z,5.47
2023-01-31T17:21:22.341Z,5.54
2023-01-31T17:24:24.918Z,5.53
2023-01-31T17:27:28.828Z,5.70
2023-01-31T17:30:31.800Z,5.73
2023-01-31T17:33:34.449Z,5.78
2023-01-31T17:36:37.020Z,5.85
2023-01-31T17:39:39.737Z,5.80
2023-01-31T17:42:43.738Z,5.88
2023-01-31T17:45:46.332Z,5.79
2023-01-31T17:48:48.906Z,5.96
2023-01-31T17:51:51.542Z,6.04
2023-01-31T17:54:54.146Z,6.01
2023-01-31T17:57:58.077Z,5.96
2023-01-31T18:01:00.690Z,6.06
2023-01-31T18:04:04.515Z,6.02
2023-01-31T18:07:07.136Z,5.88
2023-01-31T18:10:11.117Z,5.93
2023-01-31T18:13:15.043Z,5.97
2023-01-31T18:16:20.733Z,5.93
2023-01-31T18:19:23.669Z,5.87
2023-01-31T18:22:26.689Z,5.88
2023-01-31T18:25:30.644Z,5.92
2023-01-31T18:28:35.047Z,5.97
2023-01-31T18:31:37.658Z,6.03
2023-01-31T18:34:40.317Z,5.94
2023-01-31T18:37:42.944Z,6.01
2023-01-31T18:40:45.526Z,6.03
2023-01-31T18:43:50.154Z,6.03
2023-01-31T18:46:52.768Z,5.88
2023-01-31T18:49:55.359Z,5.85
2023-01-31T18:52:58.031Z,5.86
2023-01-31T18:56:03.495Z,5.85
2023-01-31T18:59:08.620Z,5.65
2023-01-31T19:02:12.071Z,5.79
2023-01-31T19:05:14.810Z,5.91
2023-01-31T19:08:17.499Z,5.86
2023-01-31T19:11:23.335Z,5.76
2023-01-31T19:14:27.370Z,5.85
2023-01-31T19:17:30.040Z,5.95
2023-01-31T19:20:32.740Z,5.93
2023-01-31T19:23:37.667Z,5.93
2023-01-31T19:26:41.046Z,5.73
2023-01-31T19:29:45.100Z,5.66
2023-01-31T19:32:47.775Z,5.69
2023-01-31T19:35:50.408Z,5.62
2023-01-31T19:38:53.322Z,5.58
2023-01-31T19:41:55.995Z,5.53
2023-01-31T19:45:00.105Z,5.48
2023-01-31T19:48:02.869Z,5.45
2023-01-31T19:51:10.001Z,5.62
2023-01-31T19:54:15.118Z,5.59
2023-01-31T19:57:17.801Z,5.50
2023-01-31T20:00:22.119Z,5.59
2023-01-31T20:03:24.899Z,5.62
2023-01-31T20:06:29.656Z,5.71
2023-01-31T20:09:32.337Z,5.58
2023-01-31T20:12:35.056Z,5.51
2023-01-31T20:15:39.188Z,5.51
2023-01-31T20:18:42.467Z,5.47
2023-01-31T20:21:45.559Z,5.49
2023-01-31T20:24:48.273Z,5.55
2023-01-31T20:27:51.003Z,5.49
2023-01-31T20:30:55.646Z,5.50
2023-01-31T20:33:58.315Z,5.48
2023-01-31T20:37:01.024Z,5.40
2023-01-31T20:40:03.711Z,5.47
2023-01-31T20:43:07.475Z,5.45
2023-01-31T20:46:14.377Z,5.48
2023-01-31T20:49:17.145Z,5.46
2023-01-31T20:52:21.359Z,5.53
2023-01-31T20:55:24.879Z,5.57
2023-01-31T20:58:28.770Z,5.53
2023-01-31T21:01:32.917Z,5.57
2023-01-31T21:04:35.645Z,5.57
2023-01-31T21:07:38.335Z,5.59
2023-01-31T21:10:41.667Z,5.53
2023-01-31T21:13:44.378Z,5.35
2023-01-31T21:16:49.105Z,5.29
2023-01-31T21:19:51.765Z,5.34
2023-01-31T21:22:54.455Z,5.34
2023-01-31T21:26:01.664Z,5.21
2023-01-31T21:29:04.436Z,5.20
2023-01-31T21:32:08.511Z,5.18
2023-01-31T21:35:11.230Z,5.24
2023-01-31T21:38:13.925Z,5.31
2023-01-31T21:41:34.047Z,5.40
2023-01-31T21:44:36.778Z,5.51
2023-01-31T21:47:54.700Z,5.51
2023-01-31T21:50:58.721Z,5.43
2023-01-31T21:54:01.427Z,5.42
2023-01-31T21:57:04.303Z,5.38
2023-01-31T22:00:08.624Z,5.41
2023-01-31T22:03:12.647Z,5.46
2023-01-31T22:06:17.358Z,5.48
2023-01-31T22:09:20.245Z,5.52
2023-01-31T22:12:22.882Z,5.54
2023-01-31T22:15:25.593Z,5.49
2023-01-31T22:18:30.311Z,5.48
2023-01-31T22:21:34.653Z,5.49
2023-01-31T22:24:37.347Z,5.37
2023-01-31T22:27:40.042Z,5.53
2023-01-31T22:30:42.733Z,5.41
2023-01-31T22:33:46.846Z,5.46
2023-01-31T22:36:49.520Z,5.43
2023-01-31T22:39:52.197Z,5.33
2023-01-31T22:42:54.857Z,5.49
2023-01-31T22:46:00.347Z,5.50
2023-01-31T22:49:04.459Z,5.50
2023-01-31T22:52:07.132Z,5.45
2023-01-31T22:55:10.592Z,5.57
2023-01-31T22:58:15.071Z,5.56
2023-01-31T23:01:19.569Z,5.57
2023-01-31T23:04:23.650Z,5.54
2023-01-31T23:07:26.545Z,5.64
2023-01-31T23:10:29.250Z,5.55
2023-01-31T23:13:32.138Z,5.55
2023-01-31T23:16:51.630Z,5.55
2023-01-31T23:19:55.711Z,5.52
2023-01-31T23:22:59.450Z,5.53
2023-01-31T23:26:02.327Z,5.52
2023-01-31T23:29:05.019Z,5.50
2023-01-31T23:32:07.774Z,5.43
2023-01-31T23:35:12.324Z,5.43
2023-01-31T23:38:15.188Z,5.42
2023-01-31T23:41:17.949Z,5.35
2023-01-31T23:44:20.608Z,5.38
2023-01-31T23:47:23.328Z,5.38
2023-01-31T23:50:27.524Z,5.43
2023-01-31T23:53:30.181Z,5.39
2023-01-31T23:56:32.930Z,5.30
2023-01-31T23:59:35.765Z,5.29
